sensor_id;sensor_type;location;lat;lon;timestamp;pressure;altitude;pressure_sealevel;temperature;humidity
34925;BME280;21130;51.728;8.748;2024-03-08T00:01:35;100873.56;;;0.04;100.00
34925;BME280;21130;51.728;8.748;2024-03-08T00:04:01;100865.66;;;-0.15;100.00
34925;BME280;21130;51.728;8.748;2024-03-08T00:06:29;100873.69;;;-0.14;100.00
34925;BME280;21130;51.728;8.748;2024-03-08T00:08:55;100876.06;;;-0.19;100.00
34925;BME280;21130;51.728;8.748;2024-03-08T00:11:22;100871.94;;;-0.31;100.00
34925;BME280;21130;51.728;8.748;2024-03-08T00:13:51;100871.06;;;-0.40;100.00
34925;BME280;21130;51.728;8.748;2024-03-08T00:16:18;100870.16;;;-0.49;100.00
34925;BME280;21130;51.728;8.748;2024-03-08T00:18:45;100864.00;;;-0.51;100.00
34925;BME280;21130;51.728;8.748;2024-03-08T00:21:11;100862.13;;;-0.50;100.00
34925;BME280;21130;51.728;8.748;2024-03-08T00:23:39;100855.81;;;-0.59;100.00
34925;BME280;21130;51.728;8.748;2024-03-08T00:26:06;100868.22;;;-0.64;100.00
34925;BME280;21130;51.728;8.748;2024-03-08T00:28:32;100857.09;;;-0.71;100.00
34925;BME280;21130;51.728;8.748;2024-03-08T00:30:59;100856.41;;;-0.73;100.00
34925;BME280;21130;51.728;8.748;2024-03-08T00:33:26;100852.09;;;-0.84;100.00
34925;BME280;21130;51.728;8.748;2024-03-08T00:35:53;100858.03;;;-0.89;100.00
34925;BME280;21130;51.728;8.748;2024-03-08T00:38:19;100851.34;;;-1.02;100.00
34925;BME280;21130;51.728;8.748;2024-03-08T00:40:47;100858.25;;;-1.08;100.00
34925;BME280;21130;51.728;8.748;2024-03-08T00:43:13;100851.59;;;-1.14;100.00
34925;BME280;21130;51.728;8.748;2024-03-08T00:45:40;100848.03;;;-1.14;100.00
34925;BME280;21130;51.728;8.748;2024-03-08T00:48:08;100848.72;;;-1.12;100.00
34925;BME280;21130;51.728;8.748;2024-03-08T00:50:34;100843.84;;;-1.26;100.00
34925;BME280;21130;51.728;8.748;2024-03-08T00:53:00;100845.34;;;-1.32;100.00
34925;BME280;21130;51.728;8.748;2024-03-08T00:55:27;100847.75;;;-1.29;100.00
34925;BME280;21130;51.728;8.748;2024-03-08T00:57:56;100847.03;;;-1.31;100.00
34925;BME280;21130;51.728;8.748;2024-03-08T01:00:23;100846.53;;;-1.35;100.00
34925;BME280;21130;51.728;8.748;2024-03-08T01:02:49;100848.53;;;-1.37;100.00
34925;BME280;21130;51.728;8.748;2024-03-08T01:05:15;100836.16;;;-1.31;100.00
34925;BME280;21130;51.728;8.748;2024-03-08T01:07:42;100832.16;;;-1.45;100.00
34925;BME280;21130;51.728;8.748;2024-03-08T01:10:11;100819.28;;;-1.35;100.00
34925;BME280;21130;51.728;8.748;2024-03-08T01:12:38;100824.88;;;-1.36;100.00
34925;BME280;21130;51.728;8.748;2024-03-08T01:15:06;100815.47;;;-1.16;100.00
34925;BME280;21130;51.728;8.748;2024-03-08T01:17:32;100813.31;;;-1.12;100.00
34925;BME280;21130;51.728;8.748;2024-03-08T01:19:59;100815.34;;;-1.14;100.00
34925;BME280;21130;51.728;8.748;2024-03-08T01:22:25;100815.91;;;-1.02;100.00
34925;BME280;21130;51.728;8.748;2024-03-08T01:24:53;100800.13;;;-0.91;100.00
34925;BME280;21130;51.728;8.748;2024-03-08T01:27:19;100799.63;;;-0.86;100.00
34925;BME280;21130;51.728;8.748;2024-03-08T01:29:46;100791.66;;;-0.79;100.00
34925;BME280;21130;51.728;8.748;2024-03-08T01:32:14;100790.16;;;-0.74;100.00
34925;BME280;21130;51.728;8.748;2024-03-08T01:34:40;100783.03;;;-0.67;100.00
34925;BME280;21130;51.728;8.748;2024-03-08T01:37:07;100783.25;;;-0.60;100.00
34925;BME280;21130;51.728;8.748;2024-03-08T01:39:34;100770.44;;;-0.68;100.00
34925;BME280;21130;51.728;8.748;2024-03-08T01:42:00;100777.59;;;-0.58;100.00
34925;BME280;21130;51.728;8.748;2024-03-08T01:44:27;100773.88;;;-0.57;100.00
34925;BME280;21130;51.728;8.748;2024-03-08T01:46:53;100773.00;;;-0.58;100.00
34925;BME280;21130;51.728;8.748;2024-03-08T01:49:24;100767.72;;;-0.68;100.00
34925;BME280;21130;51.728;8.748;2024-03-08T01:51:54;100768.34;;;-0.74;100.00
34925;BME280;21130;51.728;8.748;2024-03-08T01:54:22;100763.75;;;-0.73;100.00
34925;BME280;21130;51.728;8.748;2024-03-08T01:56:49;100763.03;;;-0.83;100.00
34925;BME280;21130;51.728;8.748;2024-03-08T01:59:18;100762.34;;;-0.85;100.00
34925;BME280;21130;51.728;8.748;2024-03-08T02:01:45;100758.44;;;-0.83;100.00
34925;BME280;21130;51.728;8.748;2024-03-08T02:04:13;100759.81;;;-0.87;100.00
34925;BME280;21130;51.728;8.748;2024-03-08T02:06:40;100760.63;;;-0.95;100.00
34925;BME280;21130;51.728;8.748;2024-03-08T02:09:07;100754.97;;;-1.01;100.00
34925;BME280;21130;51.728;8.748;2024-03-08T02:11:34;100758.00;;;-1.13;100.00
34925;BME280;21130;51.728;8.748;2024-03-08T02:14:01;100765.72;;;-1.26;100.00
34925;BME280;21130;51.728;8.748;2024-03-08T02:16:27;100756.34;;;-1.32;100.00
34925;BME280;21130;51.728;8.748;2024-03-08T02:18:54;100756.78;;;-1.44;100.00
34925;BME280;21130;51.728;8.748;2024-03-08T02:21:23;100759.19;;;-1.41;100.00
34925;BME280;21130;51.728;8.748;2024-03-08T02:23:50;100752.47;;;-1.55;100.00
34925;BME280;21130;51.728;8.748;2024-03-08T02:26:17;100751.59;;;-1.56;100.00
34925;BME280;21130;51.728;8.748;2024-03-08T02:28:44;100748.66;;;-1.62;100.00
34925;BME280;21130;51.728;8.748;2024-03-08T02:31:11;100748.38;;;-1.51;100.00
34925;BME280;21130;51.728;8.748;2024-03-08T02:33:37;100740.41;;;-1.53;100.00
34925;BME280;21130;51.728;8.748;2024-03-08T02:36:05;100737.97;;;-1.56;100.00
34925;BME280;21130;51.728;8.748;2024-03-08T02:38:33;100742.31;;;-1.45;100.00
34925;BME280;21130;51.728;8.748;2024-03-08T02:40:59;100735.53;;;-1.41;100.00
34925;BME280;21130;51.728;8.748;2024-03-08T02:43:26;100734.25;;;-1.55;100.00
34925;BME280;21130;51.728;8.748;2024-03-08T02:45:53;100724.97;;;-1.44;100.00
34925;BME280;21130;51.728;8.748;2024-03-08T02:48:19;100726.09;;;-1.55;100.00
34925;BME280;21130;51.728;8.748;2024-03-08T02:50:46;100724.06;;;-1.53;100.00
34925;BME280;21130;51.728;8.748;2024-03-08T02:53:14;100717.75;;;-1.53;100.00
34925;BME280;21130;51.728;8.748;2024-03-08T02:55:41;100716.28;;;-1.47;100.00
34925;BME280;21130;51.728;8.748;2024-03-08T02:58:08;100718.16;;;-1.48;100.00
34925;BME280;21130;51.728;8.748;2024-03-08T03:00:35;100720.47;;;-1.53;100.00
34925;BME280;21130;51.728;8.748;2024-03-08T03:03:02;100715.34;;;-1.56;100.00
34925;BME280;21130;51.728;8.748;2024-03-08T03:05:29;100716.91;;;-1.54;100.00
34925;BME280;21130;51.728;8.748;2024-03-08T03:07:56;100719.63;;;-1.54;100.00
34925;BME280;21130;51.728;8.748;2024-03-08T03:10:23;100710.09;;;-1.58;100.00
34925;BME280;21130;51.728;8.748;2024-03-08T03:12:52;100706.34;;;-1.57;100.00
34925;BME280;21130;51.728;8.748;2024-03-08T03:15:19;100707.03;;;-1.55;100.00
34925;BME280;21130;51.728;8.748;2024-03-08T03:17:46;100700.56;;;-1.54;100.00
34925;BME280;21130;51.728;8.748;2024-03-08T03:20:13;100701.50;;;-1.45;100.00
34925;BME280;21130;51.728;8.748;2024-03-08T03:22:47;100705.66;;;-1.59;100.00
34925;BME280;21130;51.728;8.748;2024-03-08T03:25:17;100696.50;;;-1.58;100.00
34925;BME280;21130;51.728;8.748;2024-03-08T03:27:48;100697.16;;;-1.56;100.00
34925;BME280;21130;51.728;8.748;2024-03-08T03:30:17;100695.13;;;-1.54;100.00
34925;BME280;21130;51.728;8.748;2024-03-08T03:32:47;100690.50;;;-1.61;100.00
34925;BME280;21130;51.728;8.748;2024-03-08T03:35:15;100698.34;;;-1.58;100.00
34925;BME280;21130;51.728;8.748;2024-03-08T03:37:41;100699.13;;;-1.66;100.00
34925;BME280;21130;51.728;8.748;2024-03-08T03:40:11;100696.22;;;-1.72;100.00
34925;BME280;21130;51.728;8.748;2024-03-08T03:42:38;100687.41;;;-1.66;100.00
34925;BME280;21130;51.728;8.748;2024-03-08T03:45:05;100693.28;;;-1.79;100.00
34925;BME280;21130;51.728;8.748;2024-03-08T03:47:33;100688.66;;;-1.87;100.00
34925;BME280;21130;51.728;8.748;2024-03-08T03:50:00;100685.69;;;-1.93;100.00
34925;BME280;21130;51.728;8.748;2024-03-08T03:52:28;100686.81;;;-2.04;100.00
34925;BME280;21130;51.728;8.748;2024-03-08T03:54:54;100681.69;;;-2.07;100.00
34925;BME280;21130;51.728;8.748;2024-03-08T03:57:22;100678.13;;;-2.08;100.00
34925;BME280;21130;51.728;8.748;2024-03-08T03:59:48;100681.06;;;-2.01;100.00
34925;BME280;21130;51.728;8.748;2024-03-08T04:02:16;100683.25;;;-2.05;100.00
34925;BME280;21130;51.728;8.748;2024-03-08T04:04:47;100679.31;;;-2.10;100.00
34925;BME280;21130;51.728;8.748;2024-03-08T04:07:14;100674.66;;;-2.18;100.00
34925;BME280;21130;51.728;8.748;2024-03-08T04:09:40;100673.31;;;-2.14;100.00
34925;BME280;21130;51.728;8.748;2024-03-08T04:12:07;100675.44;;;-2.26;100.00
34925;BME280;21130;51.728;8.748;2024-03-08T04:14:35;100674.09;;;-2.22;100.00
34925;BME280;21130;51.728;8.748;2024-03-08T04:17:01;100670.47;;;-2.30;100.00
34925;BME280;21130;51.728;8.748;2024-03-08T04:19:28;100660.53;;;-2.40;100.00
34925;BME280;21130;51.728;8.748;2024-03-08T04:21:55;100662.88;;;-2.45;100.00
34925;BME280;21130;51.728;8.748;2024-03-08T04:24:24;100669.41;;;-2.55;100.00
34925;BME280;21130;51.728;8.748;2024-03-08T04:26:51;100658.84;;;-2.58;100.00
34925;BME280;21130;51.728;8.748;2024-03-08T04:29:18;100660.69;;;-2.59;100.00
34925;BME280;21130;51.728;8.748;2024-03-08T04:31:44;100659.72;;;-2.58;100.00
34925;BME280;21130;51.728;8.748;2024-03-08T04:34:12;100665.44;;;-2.61;100.00
34925;BME280;21130;51.728;8.748;2024-03-08T04:36:38;100651.84;;;-2.61;100.00
34925;BME280;21130;51.728;8.748;2024-03-08T04:39:06;100651.94;;;-2.53;100.00
34925;BME280;21130;51.728;8.748;2024-03-08T04:41:37;100648.47;;;-2.63;100.00
34925;BME280;21130;51.728;8.748;2024-03-08T04:44:04;100645.50;;;-2.70;100.00
34925;BME280;21130;51.728;8.748;2024-03-08T04:46:30;100645.13;;;-2.75;100.00
34925;BME280;21130;51.728;8.748;2024-03-08T04:48:56;100642.53;;;-2.76;100.00
34925;BME280;21130;51.728;8.748;2024-03-08T04:51:24;100627.72;;;-2.82;100.00
34925;BME280;21130;51.728;8.748;2024-03-08T04:53:51;100632.91;;;-2.89;100.00
34925;BME280;21130;51.728;8.748;2024-03-08T04:56:19;100629.81;;;-2.94;100.00
34925;BME280;21130;51.728;8.748;2024-03-08T04:58:45;100624.88;;;-2.98;100.00
34925;BME280;21130;51.728;8.748;2024-03-08T05:01:12;100638.59;;;-3.00;100.00
34925;BME280;21130;51.728;8.748;2024-03-08T05:03:39;100629.19;;;-3.06;100.00
34925;BME280;21130;51.728;8.748;2024-03-08T05:06:05;100631.22;;;-3.08;100.00
34925;BME280;21130;51.728;8.748;2024-03-08T05:08:37;100634.78;;;-3.07;100.00
34925;BME280;21130;51.728;8.748;2024-03-08T05:11:03;100625.09;;;-2.92;100.00
34925;BME280;21130;51.728;8.748;2024-03-08T05:13:33;100626.94;;;-2.92;100.00
34925;BME280;21130;51.728;8.748;2024-03-08T05:16:00;100620.59;;;-2.83;100.00
34925;BME280;21130;51.728;8.748;2024-03-08T05:18:26;100620.53;;;-2.73;100.00
34925;BME280;21130;51.728;8.748;2024-03-08T05:20:53;100627.66;;;-2.72;100.00
34925;BME280;21130;51.728;8.748;2024-03-08T05:23:19;100626.34;;;-2.68;100.00
34925;BME280;21130;51.728;8.748;2024-03-08T05:25:48;100620.41;;;-2.46;100.00
34925;BME280;21130;51.728;8.748;2024-03-08T05:28:15;100620.91;;;-2.24;100.00
34925;BME280;21130;51.728;8.748;2024-03-08T05:30:43;100613.53;;;-2.06;100.00
34925;BME280;21130;51.728;8.748;2024-03-08T05:33:10;100606.34;;;-1.89;100.00
34925;BME280;21130;51.728;8.748;2024-03-08T05:35:36;100603.63;;;-1.89;100.00
34925;BME280;21130;51.728;8.748;2024-03-08T05:38:03;100601.75;;;-1.88;100.00
34925;BME280;21130;51.728;8.748;2024-03-08T05:40:29;100605.72;;;-1.83;100.00
34925;BME280;21130;51.728;8.748;2024-03-08T05:42:57;100598.78;;;-1.69;100.00
34925;BME280;21130;51.728;8.748;2024-03-08T05:45:23;100602.00;;;-1.74;100.00
34925;BME280;21130;51.728;8.748;2024-03-08T05:47:51;100594.16;;;-1.77;100.00
34925;BME280;21130;51.728;8.748;2024-03-08T05:50:18;100598.41;;;-1.82;100.00
34925;BME280;21130;51.728;8.748;2024-03-08T05:52:44;100590.06;;;-1.81;100.00
34925;BME280;21130;51.728;8.748;2024-03-08T05:55:12;100598.41;;;-1.82;100.00
34925;BME280;21130;51.728;8.748;2024-03-08T05:57:39;100598.53;;;-1.84;100.00
34925;BME280;21130;51.728;8.748;2024-03-08T06:00:08;100597.25;;;-1.71;100.00
34925;BME280;21130;51.728;8.748;2024-03-08T06:02:36;100596.91;;;-1.68;100.00
34925;BME280;21130;51.728;8.748;2024-03-08T06:05:08;100590.63;;;-1.69;100.00
34925;BME280;21130;51.728;8.748;2024-03-08T06:07:36;100592.53;;;-1.61;100.00
34925;BME280;21130;51.728;8.748;2024-03-08T06:10:06;100596.44;;;-1.64;100.00
34925;BME280;21130;51.728;8.748;2024-03-08T06:12:35;100599.84;;;-1.62;100.00
34925;BME280;21130;51.728;8.748;2024-03-08T06:15:06;100592.75;;;-1.55;100.00
34925;BME280;21130;51.728;8.748;2024-03-08T06:17:32;100598.19;;;-1.46;100.00
34925;BME280;21130;51.728;8.748;2024-03-08T06:19:59;100600.09;;;-1.39;100.00
34925;BME280;21130;51.728;8.748;2024-03-08T06:22:27;100599.97;;;-1.29;100.00
34925;BME280;21130;51.728;8.748;2024-03-08T06:24:55;100597.94;;;-1.27;100.00
34925;BME280;21130;51.728;8.748;2024-03-08T06:27:22;100596.06;;;-1.18;100.00
34925;BME280;21130;51.728;8.748;2024-03-08T06:29:49;100600.69;;;-1.11;100.00
34925;BME280;21130;51.728;8.748;2024-03-08T06:32:15;100602.75;;;-1.04;100.00
34925;BME280;21130;51.728;8.748;2024-03-08T06:34:42;100592.69;;;-1.12;100.00
34925;BME280;21130;51.728;8.748;2024-03-08T06:37:08;100599.00;;;-1.03;100.00
34925;BME280;21130;51.728;8.748;2024-03-08T06:39:36;100593.59;;;-0.95;100.00
34925;BME280;21130;51.728;8.748;2024-03-08T06:42:03;100592.91;;;-0.89;100.00
34925;BME280;21130;51.728;8.748;2024-03-08T06:44:30;100592.91;;;-0.89;100.00
34925;BME280;21130;51.728;8.748;2024-03-08T06:46:56;100584.72;;;-0.81;100.00
34925;BME280;21130;51.728;8.748;2024-03-08T06:49:23;100587.78;;;-0.76;100.00
34925;BME280;21130;51.728;8.748;2024-03-08T06:51:52;100594.63;;;-0.63;100.00
34925;BME280;21130;51.728;8.748;2024-03-08T06:54:18;100582.72;;;-0.54;100.00
34925;BME280;21130;51.728;8.748;2024-03-08T06:56:46;100587.31;;;-0.47;100.00
34925;BME280;21130;51.728;8.748;2024-03-08T06:59:13;100589.16;;;-0.31;100.00
34925;BME280;21130;51.728;8.748;2024-03-08T07:01:39;100592.22;;;-0.26;100.00
34925;BME280;21130;51.728;8.748;2024-03-08T07:04:05;100580.63;;;-0.19;100.00
34925;BME280;21130;51.728;8.748;2024-03-08T07:06:31;100583.84;;;-0.16;100.00
34925;BME280;21130;51.728;8.748;2024-03-08T07:08:59;100581.09;;;-0.08;100.00
34925;BME280;21130;51.728;8.748;2024-03-08T07:11:26;100583.34;;;-0.11;100.00
34925;BME280;21130;51.728;8.748;2024-03-08T07:13:54;100580.75;;;0.04;100.00
34925;BME280;21130;51.728;8.748;2024-03-08T07:16:20;100584.44;;;0.19;100.00
34925;BME280;21130;51.728;8.748;2024-03-08T07:18:47;100583.22;;;0.30;100.00
34925;BME280;21130;51.728;8.748;2024-03-08T07:21:17;100578.78;;;0.29;100.00
34925;BME280;21130;51.728;8.748;2024-03-08T07:23:44;100583.00;;;0.39;100.00
34925;BME280;21130;51.728;8.748;2024-03-08T07:26:28;100584.47;;;0.58;100.00
34925;BME280;21130;51.728;8.748;2024-03-08T07:28:55;100573.66;;;0.65;100.00
34925;BME280;21130;51.728;8.748;2024-03-08T07:31:22;100576.72;;;0.70;100.00
34925;BME280;21130;51.728;8.748;2024-03-08T07:33:56;100572.75;;;0.81;100.00
34925;BME280;21130;51.728;8.748;2024-03-08T07:36:24;100570.94;;;0.96;100.00
34925;BME280;21130;51.728;8.748;2024-03-08T07:38:50;100575.28;;;1.14;100.00
34925;BME280;21130;51.728;8.748;2024-03-08T07:41:17;100561.53;;;1.22;100.00
34925;BME280;21130;51.728;8.748;2024-03-08T07:43:43;100560.63;;;1.29;100.00
34925;BME280;21130;51.728;8.748;2024-03-08T07:46:11;100559.22;;;1.34;100.00
34925;BME280;21130;51.728;8.748;2024-03-08T07:48:38;100554.16;;;1.45;100.00
34925;BME280;21130;51.728;8.748;2024-03-08T07:51:05;100558.16;;;1.58;100.00
34925;BME280;21130;51.728;8.748;2024-03-08T07:53:33;100559.31;;;1.63;100.00
34925;BME280;21130;51.728;8.748;2024-03-08T07:55:59;100551.56;;;1.67;100.00
34925;BME280;21130;51.728;8.748;2024-03-08T07:58:26;100553.50;;;1.81;100.00
34925;BME280;21130;51.728;8.748;2024-03-08T08:00:53;100551.91;;;1.87;100.00
34925;BME280;21130;51.728;8.748;2024-03-08T08:03:21;100543.78;;;1.93;100.00
34925;BME280;21130;51.728;8.748;2024-03-08T08:05:48;100549.00;;;2.03;100.00
34925;BME280;21130;51.728;8.748;2024-03-08T08:08:15;100542.19;;;2.14;100.00
34925;BME280;21130;51.728;8.748;2024-03-08T08:10:41;100543.41;;;2.11;100.00
34925;BME280;21130;51.728;8.748;2024-03-08T08:13:08;100542.94;;;2.23;100.00
34925;BME280;21130;51.728;8.748;2024-03-08T08:15:34;100545.94;;;2.28;100.00
34925;BME280;21130;51.728;8.748;2024-03-08T08:18:01;100530.00;;;2.31;100.00
34925;BME280;21130;51.728;8.748;2024-03-08T08:20:29;100534.69;;;2.52;100.00
34925;BME280;21130;51.728;8.748;2024-03-08T08:22:56;100525.13;;;2.63;100.00
34925;BME280;21130;51.728;8.748;2024-03-08T08:25:24;100529.97;;;2.83;100.00
34925;BME280;21130;51.728;8.748;2024-03-08T08:27:51;100535.09;;;3.07;100.00
34925;BME280;21130;51.728;8.748;2024-03-08T08:30:19;100522.22;;;3.08;100.00
34925;BME280;21130;51.728;8.748;2024-03-08T08:32:45;100523.22;;;3.21;100.00
34925;BME280;21130;51.728;8.748;2024-03-08T08:35:13;100527.25;;;3.47;100.00
34925;BME280;21130;51.728;8.748;2024-03-08T08:37:41;100522.66;;;3.54;100.00
34925;BME280;21130;51.728;8.748;2024-03-08T08:40:09;100524.19;;;3.63;100.00
34925;BME280;21130;51.728;8.748;2024-03-08T08:42:40;100519.03;;;4.10;100.00
34925;BME280;21130;51.728;8.748;2024-03-08T08:45:07;100510.59;;;4.53;100.00
34925;BME280;21130;51.728;8.748;2024-03-08T08:47:34;100511.19;;;4.42;100.00
34925;BME280;21130;51.728;8.748;2024-03-08T08:50:01;100512.59;;;4.79;100.00
34925;BME280;21130;51.728;8.748;2024-03-08T08:52:27;100503.31;;;4.93;100.00
34925;BME280;21130;51.728;8.748;2024-03-08T08:54:55;100492.94;;;4.95;100.00
34925;BME280;21130;51.728;8.748;2024-03-08T08:57:22;100503.34;;;5.07;100.00
34925;BME280;21130;51.728;8.748;2024-03-08T08:59:48;100511.00;;;5.38;100.00
34925;BME280;21130;51.728;8.748;2024-03-08T09:02:15;100504.00;;;5.49;100.00
34925;BME280;21130;51.728;8.748;2024-03-08T09:04:46;100499.34;;;5.69;100.00
34925;BME280;21130;51.728;8.748;2024-03-08T09:07:13;100484.53;;;5.70;100.00
34925;BME280;21130;51.728;8.748;2024-03-08T09:09:39;100486.47;;;6.48;100.00
34925;BME280;21130;51.728;8.748;2024-03-08T09:12:08;100477.66;;;6.26;98.33
34925;BME280;21130;51.728;8.748;2024-03-08T09:14:37;100480.50;;;6.58;98.43
34925;BME280;21130;51.728;8.748;2024-03-08T09:17:03;100472.97;;;6.33;95.90
34925;BME280;21130;51.728;8.748;2024-03-08T09:19:30;100472.63;;;7.00;97.73
34925;BME280;21130;51.728;8.748;2024-03-08T09:21:57;100461.22;;;7.21;86.82
34925;BME280;21130;51.728;8.748;2024-03-08T09:24:24;100466.41;;;6.73;92.35
34925;BME280;21130;51.728;8.748;2024-03-08T09:26:51;100464.19;;;7.70;85.83
34925;BME280;21130;51.728;8.748;2024-03-08T09:29:19;100454.16;;;7.75;81.51
34925;BME280;21130;51.728;8.748;2024-03-08T09:31:46;100450.75;;;8.54;72.54
34925;BME280;21130;51.728;8.748;2024-03-08T09:34:12;100447.81;;;8.30;72.55
34925;BME280;21130;51.728;8.748;2024-03-08T09:36:38;100445.88;;;8.12;74.60
34925;BME280;21130;51.728;8.748;2024-03-08T09:39:06;100440.03;;;7.84;72.56
34925;BME280;21130;51.728;8.748;2024-03-08T09:41:33;100439.50;;;7.75;75.72
34925;BME280;21130;51.728;8.748;2024-03-08T09:44:00;100426.09;;;7.53;79.46
34925;BME280;21130;51.728;8.748;2024-03-08T09:46:28;100426.63;;;8.42;74.13
34925;BME280;21130;51.728;8.748;2024-03-08T09:48:55;100414.84;;;8.65;71.22
34925;BME280;21130;51.728;8.748;2024-03-08T09:51:26;100410.50;;;8.39;73.25
34925;BME280;21130;51.728;8.748;2024-03-08T09:53:53;100404.59;;;8.66;67.32
34925;BME280;21130;51.728;8.748;2024-03-08T09:56:20;100404.19;;;9.58;63.98
34925;BME280;21130;51.728;8.748;2024-03-08T09:58:47;100399.09;;;9.08;64.18
34925;BME280;21130;51.728;8.748;2024-03-08T10:01:46;100394.97;;;8.99;62.19
34925;BME280;21130;51.728;8.748;2024-03-08T10:04:17;100389.44;;;9.22;62.74
34925;BME280;21130;51.728;8.748;2024-03-08T10:06:43;100378.25;;;9.05;61.35
34925;BME280;21130;51.728;8.748;2024-03-08T10:09:12;100382.59;;;9.13;61.76
34925;BME280;21130;51.728;8.748;2024-03-08T10:11:39;100373.81;;;9.16;62.14
34925;BME280;21130;51.728;8.748;2024-03-08T10:14:08;100371.28;;;9.15;62.85
34925;BME280;21130;51.728;8.748;2024-03-08T10:16:35;100366.22;;;9.70;61.33
34925;BME280;21130;51.728;8.748;2024-03-08T10:19:02;100370.13;;;9.98;60.12
34925;BME280;21130;51.728;8.748;2024-03-08T10:21:31;100363.53;;;10.40;58.89
34925;BME280;21130;51.728;8.748;2024-03-08T10:23:58;100357.66;;;10.36;56.85
34925;BME280;21130;51.728;8.748;2024-03-08T10:26:26;100355.94;;;10.47;57.94
34925;BME280;21130;51.728;8.748;2024-03-08T10:28:52;100345.88;;;10.74;58.01
34925;BME280;21130;51.728;8.748;2024-03-08T10:31:19;100341.91;;;10.70;56.47
34925;BME280;21130;51.728;8.748;2024-03-08T10:33:46;100334.16;;;10.55;55.29
34925;BME280;21130;51.728;8.748;2024-03-08T10:36:15;100337.75;;;11.01;55.09
34925;BME280;21130;51.728;8.748;2024-03-08T10:38:42;100335.78;;;10.68;53.96
34925;BME280;21130;51.728;8.748;2024-03-08T10:41:12;100331.78;;;10.19;54.41
34925;BME280;21130;51.728;8.748;2024-03-08T10:43:54;100336.09;;;9.86;55.91
34925;BME280;21130;51.728;8.748;2024-03-08T10:46:30;100329.97;;;10.70;55.77
34925;BME280;21130;51.728;8.748;2024-03-08T10:49:04;100332.59;;;9.79;59.68
34925;BME280;21130;51.728;8.748;2024-03-08T10:51:36;100325.63;;;9.64;58.02
34925;BME280;21130;51.728;8.748;2024-03-08T10:54:04;100324.41;;;9.60;57.52
34925;BME280;21130;51.728;8.748;2024-03-08T10:56:32;100332.28;;;9.16;56.98
34925;BME280;21130;51.728;8.748;2024-03-08T10:58:58;100311.69;;;9.24;58.15
34925;BME280;21130;51.728;8.748;2024-03-08T11:01:25;100325.75;;;8.99;59.22
34925;BME280;21130;51.728;8.748;2024-03-08T11:03:52;100324.06;;;9.09;58.52
34925;BME280;21130;51.728;8.748;2024-03-08T11:06:29;100320.78;;;8.77;60.17
34925;BME280;21130;51.728;8.748;2024-03-08T11:08:58;100319.28;;;9.28;60.41
34925;BME280;21130;51.728;8.748;2024-03-08T11:11:29;100303.13;;;10.01;57.72
34925;BME280;21130;51.728;8.748;2024-03-08T11:13:56;100311.47;;;10.30;55.92
34925;BME280;21130;51.728;8.748;2024-03-08T11:16:39;100303.06;;;9.84;54.85
34925;BME280;21130;51.728;8.748;2024-03-08T11:19:25;100297.94;;;9.93;55.79
34925;BME280;21130;51.728;8.748;2024-03-08T11:22:01;100286.34;;;10.08;55.41
34925;BME280;21130;51.728;8.748;2024-03-08T11:24:37;100289.28;;;10.30;54.33
34925;BME280;21130;51.728;8.748;2024-03-08T11:27:06;100276.81;;;10.78;53.59
34925;BME280;21130;51.728;8.748;2024-03-08T11:29:37;100277.97;;;11.16;52.42
34925;BME280;21130;51.728;8.748;2024-03-08T11:32:07;100272.44;;;10.65;53.27
34925;BME280;21130;51.728;8.748;2024-03-08T11:34:33;100264.72;;;10.84;52.40
34925;BME280;21130;51.728;8.748;2024-03-08T11:37:00;100261.09;;;10.67;52.06
34925;BME280;21130;51.728;8.748;2024-03-08T11:39:26;100262.34;;;11.10;52.47
34925;BME280;21130;51.728;8.748;2024-03-08T11:41:55;100258.59;;;11.21;51.32
34925;BME280;21130;51.728;8.748;2024-03-08T11:44:21;100263.28;;;10.98;51.49
34925;BME280;21130;51.728;8.748;2024-03-08T11:46:49;100252.72;;;11.34;50.52
34925;BME280;21130;51.728;8.748;2024-03-08T11:49:15;100248.00;;;11.18;52.95
34925;BME280;21130;51.728;8.748;2024-03-08T11:51:41;100248.00;;;11.18;51.58
34925;BME280;21130;51.728;8.748;2024-03-08T11:54:11;100236.81;;;10.74;52.16
34925;BME280;21130;51.728;8.748;2024-03-08T11:56:38;100235.19;;;10.15;53.96
34925;BME280;21130;51.728;8.748;2024-03-08T11:59:11;100232.75;;;10.31;53.13
34925;BME280;21130;51.728;8.748;2024-03-08T12:01:37;100232.56;;;10.37;54.36
34925;BME280;21130;51.728;8.748;2024-03-08T12:04:04;100217.59;;;10.10;53.68
34925;BME280;21130;51.728;8.748;2024-03-08T12:06:36;100216.94;;;10.31;54.56
34925;BME280;21130;51.728;8.748;2024-03-08T12:09:08;100214.56;;;10.40;55.25
34925;BME280;21130;51.728;8.748;2024-03-08T12:11:35;100203.91;;;10.66;53.76
34925;BME280;21130;51.728;8.748;2024-03-08T12:14:21;100197.94;;;11.13;53.33
34925;BME280;21130;51.728;8.748;2024-03-08T12:17:10;100184.97;;;10.79;54.53
34925;BME280;21130;51.728;8.748;2024-03-08T12:19:57;100189.19;;;10.82;53.07
34925;BME280;21130;51.728;8.748;2024-03-08T12:22:44;100183.81;;;10.58;53.09
34925;BME280;21130;51.728;8.748;2024-03-08T12:25:11;100173.03;;;10.45;53.28
34925;BME280;21130;51.728;8.748;2024-03-08T12:27:39;100176.75;;;10.51;54.69
34925;BME280;21130;51.728;8.748;2024-03-08T12:33:13;100157.34;;;10.90;54.56
34925;BME280;21130;51.728;8.748;2024-03-08T12:35:39;100157.25;;;11.01;52.45
34925;BME280;21130;51.728;8.748;2024-03-08T12:38:07;100150.38;;;10.87;52.86
34925;BME280;21130;51.728;8.748;2024-03-08T12:40:33;100147.69;;;10.75;53.61
34925;BME280;21130;51.728;8.748;2024-03-08T12:43:05;100149.63;;;10.92;54.14
34925;BME280;21130;51.728;8.748;2024-03-08T12:45:32;100150.63;;;10.86;53.33
34925;BME280;21130;51.728;8.748;2024-03-08T12:47:58;100131.34;;;10.96;53.33
34925;BME280;21130;51.728;8.748;2024-03-08T12:50:26;100138.41;;;11.03;52.94
34925;BME280;21130;51.728;8.748;2024-03-08T12:52:53;100129.63;;;11.34;52.20